createdAt,value
2022-10-17T00:01:01.887Z,30077.00
2022-10-17T00:03:29.536Z,28738.28
2022-10-17T00:05:58.333Z,29413.53
2022-10-17T00:08:26.435Z,29082.09
2022-10-17T00:10:59.907Z,29413.78
2022-10-17T00:13:27.897Z,30080.66
2022-10-17T00:15:55.611Z,29749.06
2022-10-17T00:18:23.377Z,30080.13
2022-10-17T00:20:51.143Z,30086.38
2022-10-17T00:23:18.954Z,30082.47
2022-10-17T00:25:46.548Z,30083.25
2022-10-17T00:28:17.092Z,29082.84
2022-10-17T00:30:44.541Z,29751.38
2022-10-17T00:33:12.012Z,30085.34
2022-10-17T00:35:39.475Z,29750.59
2022-10-17T00:38:06.951Z,29415.31
2022-10-17T00:40:34.395Z,28750.28
2022-10-17T00:43:01.855Z,29079.53
2022-10-17T00:45:31.892Z,28411.50
2022-10-17T00:48:03.891Z,28409.53
2022-10-17T00:50:31.936Z,28410.50
2022-10-17T00:53:02.396Z,28074.25
2022-10-17T00:55:33.491Z,28406.06
2022-10-17T00:58:04.236Z,27738.03
2022-10-17T01:00:33.322Z,29072.97
2022-10-17T01:03:00.808Z,29403.56
2022-10-17T01:05:28.383Z,28388.75
2022-10-17T01:07:56.232Z,29734.59
2022-10-17T01:10:30.972Z,29389.78
2022-10-17T01:13:09.483Z,30393.72
2022-10-17T01:15:51.654Z,29052.00
2022-10-17T01:18:33.811Z,29389.78
2022-10-17T01:21:20.870Z,30727.13
2022-10-17T01:24:17.463Z,30388.19
2022-10-17T01:27:04.943Z,29717.03
2022-10-17T01:29:51.053Z,31394.88
2022-10-17T01:32:26.371Z,31391.91
2022-10-17T01:34:58.563Z,30727.13
2022-10-17T01:37:30.491Z,30726.59
2022-10-17T01:40:04.520Z,29728.91
2022-10-17T01:42:36.886Z,30063.97
2022-10-17T01:45:09.988Z,30065.00
2022-10-17T01:47:40.404Z,30064.75
2022-10-17T01:50:14.894Z,29735.63
2022-10-17T01:52:46.472Z,29400.00
2022-10-17T01:55:19.482Z,29403.31
2022-10-17T01:57:51.855Z,29404.09
2022-10-17T02:00:21.912Z,29069.94
2022-10-17T02:02:53.928Z,28736.28
2022-10-17T02:05:25.966Z,28732.28
2022-10-17T02:07:53.431Z,28397.41
2022-10-17T02:10:31.750Z,28066.19
2022-10-17T02:13:04.338Z,27062.06
2022-10-17T02:15:59.190Z,26727.34
2022-10-17T02:18:46.320Z,26057.88
2022-10-17T02:21:25.163Z,26391.94
2022-10-17T02:23:57.194Z,26726.66
2022-10-17T02:26:30.979Z,26721.97
2022-10-17T02:29:06.964Z,27058.53
2022-10-17T02:31:39.008Z,27059.47
2022-10-17T02:34:13.320Z,26726.44
2022-10-17T02:36:54.762Z,26725.72
2022-10-17T02:39:24.258Z,26725.50
2022-10-17T02:41:53.693Z,27058.75
2022-10-17T02:44:22.734Z,26723.84
2022-10-17T02:46:58.316Z,27058.06
2022-10-17T02:49:29.851Z,27061.38
2022-10-17T02:52:05.194Z,26727.34
2022-10-17T02:54:38.083Z,27060.91
2022-10-17T02:57:11.648Z,26725.97
2022-10-17T02:59:41.546Z,27061.84
2022-10-17T03:02:09.352Z,27060.44
2022-10-17T03:04:38.537Z,27394.88
2022-10-17T03:07:05.981Z,28062.03
2022-10-17T03:09:33.448Z,28061.78
2022-10-17T03:12:00.886Z,27731.72
2022-10-17T03:14:28.330Z,27726.91
2022-10-17T03:16:55.802Z,27727.13
2022-10-17T03:19:23.280Z,27728.59
2022-10-17T03:21:52.083Z,28061.53
2022-10-17T03:24:19.506Z,28398.16
2022-10-17T03:29:19.309Z,28394.19
2022-10-17T03:31:47.035Z,28728.03
2022-10-17T03:34:16.666Z,27725.94
2022-10-17T03:36:44.177Z,28057.88
2022-10-17T03:39:13.318Z,28058.59
2022-10-17T03:41:40.775Z,28392.72
2022-10-17T03:44:08.224Z,28056.91
2022-10-17T03:46:35.705Z,28391.22
2022-10-17T03:49:03.151Z,27725.44
2022-10-17T03:51:30.601Z,26718.72
2022-10-17T03:53:58.047Z,26725.25
2022-10-17T03:56:27.718Z,27387.00
2022-10-17T03:58:55.778Z,27388.44
2022-10-17T04:01:24.081Z,27388.91
2022-10-17T04:03:52.919Z,27723.75
2022-10-17T04:06:20.728Z,27055.47
2022-10-17T04:08:48.183Z,28058.59
2022-10-17T04:11:18.104Z,28056.16
2022-10-17T04:13:47.112Z,28390.97
2022-10-17T04:16:16.223Z,28389.50
2022-10-17T04:18:44.198Z,28724.78
2022-10-17T04:21:12.346Z,28391.72
2022-10-17T04:23:39.815Z,28388.03
2022-10-17T04:26:08.114Z,29396.44
2022-10-17T04:28:35.778Z,29734.84
2022-10-17T04:31:06.568Z,29069.69
2022-10-17T04:33:35.658Z,28060.81
2022-10-17T04:36:05.388Z,27727.38
2022-10-17T04:38:33.139Z,26722.22
2022-10-17T04:41:05.203Z,26383.63
2022-10-17T04:43:33.254Z,26044.88
2022-10-17T04:46:01.493Z,25713.91
2022-10-17T04:48:31.208Z,25379.03
2022-10-17T04:51:02.260Z,24711.66
2022-10-17T04:53:32.036Z,25047.66
2022-10-17T04:55:59.529Z,25045.25
2022-10-17T04:58:29.386Z,24711.66
2022-10-17T05:00:57.262Z,24711.22
2022-10-17T05:03:24.866Z,24375.22
2022-10-17T05:05:53.614Z,24710.13
2022-10-17T05:08:21.194Z,24710.78
2022-10-17T05:10:48.695Z,24712.50
2022-10-17T05:13:16.410Z,23705.63
2022-10-17T05:15:44.189Z,24374.81
2022-10-17T05:18:11.677Z,24042.22
2022-10-17T05:20:39.130Z,24037.16
2022-10-17T05:23:07.922Z,23706.47
2022-10-17T05:25:35.402Z,24712.94
2022-10-17T05:28:02.892Z,25046.34
2022-10-17T05:30:33.816Z,25048.09
2022-10-17T05:33:04.347Z,25384.13
2022-10-17T05:35:31.827Z,25046.78
2022-10-17T05:37:59.963Z,25383.25
2022-10-17T05:40:28.769Z,25386.81
2022-10-17T05:42:56.547Z,25052.28
2022-10-17T05:45:24.108Z,25720.66
2022-10-17T05:47:51.896Z,25385.03
2022-10-17T05:50:21.000Z,24718.81
2022-10-17T05:52:48.472Z,25727.19
2022-10-17T05:55:15.957Z,25725.59
2022-10-17T05:57:44.741Z,25731.44
2022-10-17T06:00:13.620Z,25735.06
2022-10-17T06:02:41.081Z,26071.56
2022-10-17T06:05:09.291Z,25739.56
2022-10-17T06:07:37.003Z,26409.69
2022-10-17T06:10:05.466Z,26413.16
2022-10-17T06:12:32.946Z,26749.53
2022-10-17T06:15:01.996Z,27089.25
2022-10-17T06:17:30.304Z,27428.09
2022-10-17T06:19:58.020Z,27766.53
2022-10-17T06:22:25.606Z,28437.22
2022-10-17T06:24:53.679Z,29110.38
2022-10-17T06:27:21.624Z,28778.53
2022-10-17T06:29:51.123Z,29118.47
2022-10-17T06:32:20.040Z,29457.75
2022-10-17T06:34:47.720Z,30133.66
2022-10-17T06:37:15.180Z,30808.13
2022-10-17T06:39:42.737Z,30812.41
2022-10-17T06:42:10.173Z,31493.38
2022-10-17T06:44:37.970Z,32170.28
2022-10-17T06:47:05.616Z,33184.28
2022-10-17T06:49:34.404Z,33862.84
2022-10-17T06:52:01.912Z,34878.72
2022-10-17T06:54:29.413Z,35560.91
2022-10-17T06:56:57.041Z,36237.81
2022-10-17T06:59:24.535Z,37936.06
2022-10-17T07:01:51.995Z,38620.56
2022-10-17T07:04:19.601Z,40317.22
2022-10-17T07:06:48.441Z,42017.16
2022-10-17T07:09:16.937Z,43719.88
2022-10-17T07:11:44.427Z,46102.91
2022-10-17T07:14:12.027Z,48146.22
2022-10-17T07:16:39.509Z,50532.47
2022-10-17T07:19:07.036Z,53603.13
2022-10-17T07:21:36.701Z,56336.84
2022-10-17T07:24:08.274Z,57703.41
2022-10-17T07:26:35.903Z,60785.47
2022-10-17T07:29:03.570Z,63188.38
2022-10-17T07:31:31.051Z,66263.25
2022-10-17T07:34:00.369Z,68664.69
2022-10-17T07:36:27.916Z,70387.69
2022-10-17T07:38:55.395Z,73131.41
2022-10-17T07:41:24.147Z,76568.13
2022-10-17T07:43:51.598Z,81053.03
2022-10-17T07:46:19.087Z,85531.13
2022-10-17T07:48:46.561Z,90012.84
2022-10-17T07:51:14.029Z,94516.84
2022-10-17T07:53:45.115Z,98315.38
2022-10-17T07:56:15.728Z,99022.13
2022-10-17T07:58:44.702Z,102849.50
2022-10-17T08:01:15.491Z,112575.09
2022-10-17T08:03:45.342Z,117795.63
2022-10-17T08:06:13.713Z,124749.38
2022-10-17T08:08:41.403Z,119207.28
2022-10-17T08:11:11.303Z,131072.19
2022-10-17T08:13:40.194Z,134939.47
2022-10-17T08:16:14.203Z,136339.91
2022-10-17T08:18:43.296Z,138094.22
2022-10-17T08:21:12.935Z,136750.22
2022-10-17T08:23:40.428Z,150410.28
2022-10-17T08:26:10.653Z,154680.25
2022-10-17T08:28:39.745Z,154704.84
2022-10-17T08:31:10.562Z,154708.75
2022-10-17T08:33:38.490Z,154695.81
2022-10-17T08:36:07.002Z,154688.00
2022-10-17T08:38:36.817Z,154690.59
2022-10-17T08:41:13.055Z,154680.25
2022-10-17T08:43:55.655Z,154712.59
2022-10-17T08:46:31.521Z,154737.22
2022-10-17T08:49:01.952Z,154723.00
2022-10-17T08:51:33.125Z,154748.94
2022-10-17T08:54:07.719Z,154747.63
2022-10-17T08:56:48.946Z,154747.63
2022-10-17T08:59:21.083Z,154782.59
2022-10-17T09:01:58.043Z,154770.94
2022-10-17T09:04:45.530Z,154809.81
2022-10-17T09:07:21.190Z,154796.84
2022-10-17T09:09:59.842Z,154809.81
2022-10-17T09:12:38.752Z,154817.63
2022-10-17T09:15:32.718Z,154820.16
2022-10-17T09:18:08.561Z,154850.00
2022-10-17T09:20:41.541Z,154838.31
2022-10-17T09:23:14.561Z,154868.16
2022-10-17T09:25:45.784Z,154911.00
2022-10-17T09:28:20.107Z,154916.16
2022-10-17T09:30:51.263Z,154921.34
2022-10-17T09:33:34.540Z,154886.31
2022-10-17T09:36:03.958Z,154896.72
2022-10-17T09:38:42.362Z,154965.44
2022-10-17T09:41:44.354Z,155004.34
2022-10-17T09:44:16.575Z,155061.41
2022-10-17T09:46:52.535Z,155056.19
2022-10-17T09:49:27.210Z,155043.22
2022-10-17T09:51:54.728Z,155019.91
2022-10-17T09:54:25.921Z,155022.47
2022-10-17T09:57:01.499Z,155019.91
2022-10-17T09:59:34.374Z,155004.34
2022-10-17T10:02:10.590Z,155039.31
2022-10-17T10:05:08.552Z,155115.94
2022-10-17T10:07:38.668Z,155117.19
2022-10-17T10:10:09.120Z,155152.25
2022-10-17T10:12:39.227Z,155163.91
2022-10-17T10:15:35.172Z,155141.88
2022-10-17T10:18:02.733Z,155131.47
2022-10-17T10:20:35.021Z,155147.03
2022-10-17T10:23:08.219Z,155118.50
2022-10-17T10:25:36.908Z,155174.28
2022-10-17T10:28:11.793Z,155198.91
2022-10-17T10:30:40.109Z,155263.81
2022-10-17T10:33:12.488Z,155287.19
2022-10-17T10:35:41.384Z,155266.38
2022-10-17T10:38:12.395Z,155252.13
2022-10-17T10:40:47.423Z,155294.94
2022-10-17T10:43:24.164Z,155315.78
2022-10-17T10:45:53.187Z,155349.50
2022-10-17T10:48:23.586Z,155326.16
2022-10-17T10:50:56.855Z,155337.81
2022-10-17T10:53:43.913Z,155344.34
2022-10-17T10:56:17.077Z,155331.38
2022-10-17T10:58:55.553Z,155362.47
2022-10-17T11:01:29.937Z,155406.63
2022-10-17T11:04:08.883Z,155410.53
2022-10-17T11:06:41.903Z,155394.94
2022-10-17T11:09:23.985Z,155409.22
2022-10-17T11:11:59.049Z,155409.22
2022-10-17T11:14:38.725Z,155442.97
2022-10-17T11:17:14.483Z,155435.19
2022-10-17T11:19:47.374Z,155448.16
2022-10-17T11:22:21.987Z,155455.94
2022-10-17T11:24:59.521Z,155463.75
2022-10-17T11:27:29.006Z,155458.53
2022-10-17T11:29:57.149Z,155518.34
2022-10-17T11:32:28.550Z,155541.69
2022-10-17T11:35:01.743Z,155570.28
2022-10-17T11:37:35.920Z,155596.25
2022-10-17T11:40:04.562Z,155600.16
2022-10-17T11:42:39.180Z,155594.94
2022-10-17T11:45:12.924Z,155575.50
2022-10-17T11:47:46.798Z,155593.66
2022-10-17T11:53:15.381Z,155609.22
2022-10-17T11:55:44.269Z,155635.22
2022-10-17T11:58:30.367Z,155624.81
2022-10-17T12:01:07.805Z,155653.41
2022-10-17T12:03:49.038Z,155666.41
2022-10-17T12:06:23.726Z,155653.41
2022-10-17T12:09:02.342Z,155683.28
2022-10-17T12:11:41.618Z,155708.03
2022-10-17T12:14:40.399Z,155702.75
2022-10-17T12:17:26.694Z,155704.06
2022-10-17T12:19:54.694Z,155711.94
2022-10-17T12:22:25.896Z,155723.63
2022-10-17T12:25:00.624Z,155734.00
2022-10-17T12:27:38.980Z,155747.00
2022-10-17T12:30:17.175Z,155756.06
2022-10-17T12:33:07.044Z,155762.59
2022-10-17T12:35:36.711Z,155783.34
2022-10-17T12:38:19.618Z,155784.66
2022-10-17T12:40:56.856Z,155780.81
2022-10-17T12:46:56.866Z,155791.19
2022-10-17T12:49:49.705Z,155791.19
2022-10-17T12:52:22.189Z,155796.34
2022-10-17T12:55:07.179Z,155830.16
2022-10-17T12:57:44.067Z,155844.47
2022-10-17T13:00:21.696Z,155832.78
2022-10-17T13:02:50.746Z,155847.06
2022-10-17T13:05:27.242Z,155832.78
2022-10-17T13:07:56.194Z,155843.16
2022-10-17T13:13:07.547Z,155775.59
2022-10-17T13:15:37.019Z,155767.75
2022-10-17T13:18:04.919Z,155767.75
2022-10-17T13:20:33.247Z,155741.78
2022-10-17T13:23:00.833Z,155734.00
2022-10-17T13:25:29.419Z,155710.63
2022-10-17T13:28:13.431Z,155708.03
2022-10-17T13:30:41.121Z,155683.28
2022-10-17T13:33:30.138Z,155689.75
2022-10-17T13:36:01.314Z,155683.28
2022-10-17T13:38:34.182Z,155656.00
2022-10-17T13:41:30.454Z,155646.91
2022-10-17T13:43:53.259Z,155624.81
2022-10-17T13:46:39.138Z,155614.44
2022-10-17T13:49:16.460Z,155572.88
2022-10-17T13:51:46.131Z,155570.28
2022-10-17T13:54:33.981Z,155546.91
2022-10-17T13:57:03.367Z,155553.38
2022-10-17T13:59:38.459Z,155546.91
2022-10-17T14:02:12.456Z,155526.09
2022-10-17T14:05:04.005Z,155532.63
2022-10-17T14:08:05.590Z,155520.94
2022-10-17T14:10:31.653Z,155509.25
2022-10-17T14:13:00.099Z,155492.31
2022-10-17T14:15:31.578Z,155505.31
2022-10-17T14:18:05.459Z,155474.13
2022-10-17T14:23:36.503Z,155448.16
2022-10-17T14:26:13.700Z,155414.44
2022-10-17T14:28:43.019Z,155401.41
2022-10-17T14:31:22.305Z,155385.88
2022-10-17T14:33:51.867Z,155369.00
2022-10-17T14:36:20.299Z,155381.97
2022-10-17T14:38:50.431Z,155366.38
2022-10-17T14:41:41.831Z,155357.31
2022-10-17T14:44:21.427Z,155341.72
2022-10-17T14:46:54.923Z,155319.69
2022-10-17T14:49:32.487Z,155310.56
2022-10-17T14:52:32.364Z,155300.16
2022-10-17T14:55:01.924Z,155294.94
2022-10-17T14:57:43.481Z,155266.38
2022-10-17T15:00:15.857Z,155259.94
2022-10-17T15:02:45.784Z,155261.22
2022-10-17T15:05:14.079Z,155223.59
2022-10-17T15:07:42.077Z,155185.94
2022-10-17T15:10:24.416Z,155200.22
2022-10-17T15:12:58.793Z,155172.97
2022-10-17T15:15:27.989Z,155175.56
2022-10-17T15:17:56.819Z,155123.69
2022-10-17T15:20:27.943Z,155175.56
2022-10-17T15:22:55.750Z,155134.06
2022-10-17T15:25:23.655Z,155149.63
2022-10-17T15:27:51.630Z,155128.91
2022-10-17T15:30:22.723Z,155096.44
2022-10-17T15:32:51.178Z,155100.38
2022-10-17T15:35:21.461Z,155099.06
2022-10-17T15:37:49.706Z,155095.16
2022-10-17T15:40:19.359Z,155079.53
2022-10-17T15:42:46.885Z,155067.88
2022-10-17T15:45:16.423Z,155040.63
2022-10-17T15:47:50.499Z,155017.31
2022-10-17T15:50:21.528Z,154979.72
2022-10-17T15:52:50.852Z,154936.91
2022-10-17T15:55:19.082Z,154962.84
2022-10-17T15:57:48.367Z,154949.88
2022-10-17T16:00:18.160Z,154931.72
2022-10-17T16:02:46.407Z,154929.09
2022-10-17T16:05:16.611Z,154900.56
2022-10-17T16:07:46.735Z,154873.34
2022-10-17T16:10:14.547Z,154848.69
2022-10-17T16:12:42.097Z,154846.09
2022-10-17T16:15:14.737Z,154843.53
2022-10-17T16:17:43.717Z,154820.16
2022-10-17T16:20:12.470Z,154811.09
2022-10-17T16:22:42.033Z,154805.91
2022-10-17T16:25:20.217Z,154734.66
2022-10-17T16:27:48.568Z,154745.03
2022-10-17T16:30:16.708Z,154754.06
2022-10-17T16:32:44.333Z,154754.06
2022-10-17T16:35:17.245Z,154747.63
2022-10-17T16:37:44.711Z,154747.63
2022-10-17T16:40:14.324Z,154745.03
2022-10-17T16:42:41.886Z,154742.41
2022-10-17T16:45:11.060Z,154732.06
2022-10-17T16:47:38.637Z,154724.25
2022-10-17T16:50:06.654Z,154698.34
2022-10-17T16:52:34.094Z,154739.81
2022-10-17T16:55:01.891Z,154711.31
2022-10-17T16:57:30.745Z,154697.06
2022-10-17T16:59:58.250Z,154662.09
2022-10-17T17:02:25.688Z,154682.78
2022-10-17T17:04:53.130Z,154685.41
2022-10-17T17:07:21.753Z,154668.59
2022-10-17T17:09:49.221Z,154675.03
2022-10-17T17:12:16.705Z,154640.09
2022-10-17T17:14:45.482Z,154605.03
2022-10-17T17:17:19.696Z,154593.38
2022-10-17T17:19:58.007Z,154581.72
2022-10-17T17:22:25.773Z,154558.44
2022-10-17T17:24:53.252Z,154527.34
2022-10-17T17:27:21.486Z,154548.03
2022-10-17T17:29:50.282Z,154538.97
2022-10-17T17:32:17.764Z,154575.22
2022-10-17T17:34:45.407Z,154536.38
2022-10-17T17:37:13.191Z,154504.03
2022-10-17T17:39:40.686Z,154501.44
2022-10-17T17:42:08.138Z,154462.59
2022-10-17T17:44:35.591Z,154469.03
2022-10-17T17:47:08.184Z,154436.72
2022-10-17T17:49:35.620Z,154467.75
2022-10-17T17:54:38.548Z,154432.81
2022-10-17T17:57:08.337Z,154453.50
2022-10-17T17:59:36.055Z,154408.22
2022-10-17T18:02:06.246Z,154421.16
2022-10-17T18:04:34.088Z,154366.75
2022-10-17T18:07:01.562Z,145957.78
2022-10-17T18:09:29.008Z,143827.44
2022-10-17T18:11:56.459Z,145250.25
2022-10-17T18:14:25.666Z,147729.88
2022-10-17T18:16:53.162Z,150902.63
2022-10-17T18:19:23.595Z,151629.19
2022-10-17T18:21:51.077Z,151731.66
2022-10-17T18:24:18.531Z,150931.22
2022-10-17T18:26:46.044Z,143841.91
2022-10-17T18:29:13.494Z,139275.31
2022-10-17T18:31:40.960Z,135051.19
2022-10-17T18:34:08.391Z,124901.81
2022-10-17T18:36:37.728Z,117574.81
2022-10-17T18:39:06.148Z,111318.44
2022-10-17T18:41:34.176Z,110990.78
2022-10-17T18:44:02.834Z,105779.66
2022-10-17T18:46:32.637Z,104729.44
2022-10-17T18:49:00.190Z,102641.06
2022-10-17T18:51:28.255Z,97782.00
2022-10-17T18:53:58.915Z,93661.69
2022-10-17T18:56:27.337Z,92606.91
2022-10-17T18:58:55.122Z,91599.06
2022-10-17T19:01:24.615Z,91585.22
2022-10-17T19:03:54.495Z,90183.19
2022-10-17T19:06:24.822Z,89150.13
2022-10-17T19:08:52.313Z,87751.63
2022-10-17T19:11:22.588Z,85011.28
2022-10-17T19:13:51.246Z,84632.44
2022-10-17T19:16:20.521Z,80514.41
2022-10-17T19:18:50.770Z,78457.34
2022-10-17T19:21:21.886Z,76075.28
2022-10-17T19:23:52.156Z,77091.44
2022-10-17T19:26:22.106Z,77788.09
2022-10-17T19:28:52.204Z,77771.06
2022-10-17T19:31:26.207Z,73358.59
2022-10-17T19:33:54.188Z,76066.31
2022-10-17T19:36:23.573Z,73988.84
2022-10-17T19:38:54.216Z,71596.94
2022-10-17T19:41:25.280Z,70236.13
2022-10-17T19:43:53.510Z,69514.22
2022-10-17T19:46:22.785Z,66763.91
2022-10-17T19:48:51.213Z,65405.63
2022-10-17T19:51:21.578Z,65394.59
2022-10-17T19:53:49.214Z,64706.41
2022-10-17T19:56:18.525Z,63341.56
2022-10-17T19:58:48.337Z,63346.38
2022-10-17T20:01:17.435Z,62997.22
2022-10-17T20:03:45.049Z,62328.31
2022-10-17T20:06:13.043Z,63337.78
2022-10-17T20:08:41.756Z,63328.72
2022-10-17T20:11:11.655Z,63315.88
2022-10-17T20:13:39.503Z,63311.06
2022-10-17T20:16:12.048Z,60916.97
2022-10-17T20:18:40.693Z,60237.78
2022-10-17T20:21:11.718Z,58896.69
2022-10-17T20:23:39.722Z,58901.16
2022-10-17T20:26:25.921Z,59221.22
2022-10-17T20:29:01.294Z,58543.75
2022-10-17T20:31:30.994Z,58866.28
2022-10-17T20:33:59.637Z,57505.59
2022-10-17T20:36:27.488Z,57499.28
2022-10-17T20:38:55.466Z,57153.78
2022-10-17T20:41:23.887Z,55136.72
2022-10-17T20:43:52.599Z,56151.72
2022-10-17T20:46:36.330Z,55816.34
2022-10-17T20:49:08.060Z,57517.28
2022-10-17T20:51:36.586Z,57513.38
2022-10-17T20:54:05.229Z,54486.78
2022-10-17T20:56:34.856Z,55852.75
2022-10-17T20:59:03.984Z,53819.84
2022-10-17T21:01:33.423Z,55518.56
2022-10-17T21:04:21.462Z,55848.97
2022-10-17T21:06:51.773Z,54821.81
2022-10-17T21:09:19.406Z,52794.31
2022-10-17T21:11:48.123Z,53802.06
2022-10-17T21:14:16.651Z,54490.94
2022-10-17T21:16:44.826Z,54513.09
2022-10-17T21:19:13.238Z,55192.78
2022-10-17T21:21:42.323Z,54536.19
2022-10-17T21:24:14.050Z,55889.63
2022-10-17T21:26:43.287Z,55551.03
2022-10-17T21:29:11.041Z,56239.72
2022-10-17T21:31:40.249Z,57601.06
2022-10-17T21:34:09.675Z,57253.50
2022-10-17T21:36:37.542Z,57585.44
2022-10-17T21:39:05.643Z,57235.09
2022-10-17T21:41:34.489Z,56211.16
2022-10-17T21:44:04.443Z,55202.59
2022-10-17T21:46:32.495Z,55207.72
2022-10-17T21:49:01.252Z,55196.06
2022-10-17T21:51:29.579Z,54513.09
2022-10-17T21:53:58.230Z,54508.47
2022-10-17T21:56:29.759Z,54513.09
2022-10-17T21:58:59.495Z,54496.00
2022-10-17T22:01:29.467Z,53494.72
2022-10-17T22:03:59.030Z,53486.56
2022-10-17T22:06:43.491Z,53823.97
2022-10-17T22:09:15.136Z,52797.44
2022-10-17T22:11:44.891Z,52792.97
2022-10-17T22:14:15.629Z,52457.03
2022-10-17T22:16:44.856Z,52789.38
2022-10-17T22:19:13.412Z,53114.47
2022-10-17T22:21:41.098Z,52437.47
2022-10-17T22:24:11.789Z,52102.09
2022-10-17T22:26:39.543Z,51417.75
2022-10-17T22:29:08.547Z,50397.56
2022-10-17T22:31:38.287Z,49050.44
2022-10-17T22:34:06.893Z,49051.69
2022-10-17T22:36:35.220Z,48374.03
2022-10-17T22:39:02.796Z,49051.28
2022-10-17T22:41:30.262Z,49724.84
2022-10-17T22:43:57.808Z,50056.75
2022-10-17T22:46:25.657Z,50055.88
2022-10-17T22:48:54.635Z,49383.25
2022-10-17T22:53:54.734Z,50713.47
2022-10-17T22:56:23.518Z,49029.59
2022-10-17T22:58:51.267Z,48684.09
2022-10-17T23:01:20.891Z,48011.38
2022-10-17T23:03:49.128Z,48354.31
2022-10-17T23:06:18.322Z,48017.88
2022-10-17T23:08:46.316Z,48358.41
2022-10-17T23:11:14.084Z,48699.38
2022-10-17T23:13:41.581Z,48687.41
2022-10-17T23:16:09.586Z,47675.00
2022-10-17T23:18:38.334Z,47688.78
2022-10-17T23:21:06.503Z,48030.53
2022-10-17T23:23:35.442Z,48027.69
2022-10-17T23:26:08.013Z,48366.22
2022-10-17T23:28:36.027Z,48370.31
2022-10-17T23:31:14.890Z,48364.97
2022-10-17T23:33:42.724Z,47690.00
2022-10-17T23:36:11.010Z,48023.59
2022-10-17T23:38:40.200Z,48021.16
2022-10-17T23:41:08.007Z,48015.44
2022-10-17T23:43:35.577Z,47350.31
2022-10-17T23:46:03.642Z,48033.41
2022-10-17T23:48:31.504Z,48706.03
2022-10-17T23:50:59.065Z,49391.22
2022-10-17T23:53:27.163Z,50059.28
2022-10-17T23:55:55.958Z,49375.69
2022-10-17T23:58:23.402Z,49715.97
